Memphis, Tennessee
Current Conditions -  °F | °C
As of 4:54 PM on Monday 24 Nov 2014 (Local Time) from KMEM Reporting Station
Few Clouds Few Clouds  
Wind Chill: 52°   Ceiling: Unl
Heat Index: 52°   Visibility: 10mi
Dew Point: 30°   Wind: 5mph
Humidity: 43%   Direction: 240°WSW
Pressure: 29.96"   Gusts: NA
Location:  35.15°N, 90.05°W
Report Text: KMEM 242254Z 24004KT 10SM FEW200 11/M01 A2996 RMK AO2 SLP143 T01111011 $
Loading
Personal Weather Stations






























Interactive Weather Map New forecast layout! Learn more

10-Day Weather Forecast

Advertisements
Track Severe Weather on mobile